createdAt,value
2023-02-06T00:04:47.380Z,1
2023-02-06T00:14:47.866Z,0.5
2023-02-06T00:24:48.187Z,0.2
2023-02-06T00:34:48.726Z,0
2023-02-06T00:44:48.951Z,-0.1
2023-02-06T00:54:49.136Z,-0.3
2023-02-06T01:04:49.655Z,-0.3
2023-02-06T01:14:50.604Z,-0.2
2023-02-06T01:24:50.849Z,-0.6
2023-02-06T01:34:51.008Z,-0.8
2023-02-06T01:44:51.788Z,-0.8
2023-02-06T01:54:52.722Z,-0.9
2023-02-06T02:04:53.598Z,-1.2
2023-02-06T02:14:53.802Z,-1.2
2023-02-06T02:24:54.851Z,-1.3
2023-02-06T02:34:55.384Z,-1.4
2023-02-06T02:44:55.666Z,-1.5
2023-02-06T02:54:55.866Z,-1.4
2023-02-06T03:04:56.396Z,-1.3
2023-02-06T03:14:57.243Z,-1.4
2023-02-06T03:24:57.441Z,-1.4
2023-02-06T03:34:58.372Z,-1.5
2023-02-06T03:44:59.112Z,-1.6
2023-02-06T03:55:00.164Z,-1.7
2023-02-06T04:05:01.273Z,-1.8
2023-02-06T04:15:02.164Z,-1.7
2023-02-06T04:25:03.001Z,-1.8
2023-02-06T04:45:04.057Z,-1.9
2023-02-06T04:55:04.431Z,-1.9
2023-02-06T05:05:04.760Z,-1.7
2023-02-06T05:15:05.288Z,-1.7
2023-02-06T05:25:05.982Z,-1.5
2023-02-06T05:35:06.749Z,-1.5
2023-02-06T05:45:07.466Z,-1.4
2023-02-06T05:55:07.962Z,-1.4
2023-02-06T06:05:08.649Z,-1.4
2023-02-06T06:15:08.933Z,-1.3
2023-02-06T06:35:10.396Z,-1.3
2023-02-06T06:45:11.450Z,-1.3
2023-02-06T06:55:12.053Z,-1.4
2023-02-06T07:05:12.802Z,-1.4
2023-02-06T07:15:13.530Z,-1.3
2023-02-06T07:25:14.143Z,-1.2
2023-02-06T07:35:14.838Z,-1.1
2023-02-06T07:55:15.438Z,-0.8
2023-02-06T08:05:15.969Z,-0.7
2023-02-06T08:15:17.077Z,-0.5
2023-02-06T08:25:17.476Z,-0.4
2023-02-06T08:35:18.466Z,-0.4
2023-02-06T08:45:19.039Z,-0.2
2023-02-06T08:55:19.672Z,-0.1
2023-02-06T09:05:19.972Z,0.1
2023-02-06T09:15:20.551Z,0.4
2023-02-06T09:25:21.152Z,0.6
2023-02-06T09:35:21.861Z,0.8
2023-02-06T09:45:22.636Z,1.1
2023-02-06T09:55:23.076Z,1.4
2023-02-06T10:05:24.078Z,1.6
2023-02-06T10:15:24.698Z,1.6
2023-02-06T10:25:25.727Z,1.7
2023-02-06T10:35:26.604Z,1.7
2023-02-06T10:45:27.618Z,2
2023-02-06T10:55:27.780Z,2.3
2023-02-06T11:05:28.399Z,2.5
2023-02-06T11:15:28.869Z,2.7
2023-02-06T11:45:30.162Z,3.3
2023-02-06T12:05:31.264Z,3.7
2023-02-06T12:25:31.622Z,4.1
2023-02-06T12:55:33.439Z,4.9
2023-02-06T13:05:33.878Z,5.1
2023-02-06T13:25:34.493Z,5.5
2023-02-06T13:45:35.868Z,5.6
2023-02-06T14:05:36.847Z,5.9
2023-02-06T14:15:37.673Z,5.9
2023-02-06T14:25:37.858Z,5.9
2023-02-06T14:35:38.177Z,6
2023-02-06T14:45:42.277Z,6
2023-02-06T15:05:40.568Z,5.8
2023-02-06T15:15:42.330Z,5.7
2023-02-06T15:25:41.410Z,5.7
2023-02-06T15:35:41.688Z,5.7
2023-02-06T15:45:42.149Z,5.6
2023-02-06T15:55:42.426Z,5.5
2023-02-06T16:05:42.928Z,5.4
2023-02-06T16:25:44.562Z,5.5
2023-02-06T16:35:45.675Z,5.4
2023-02-06T16:55:46.863Z,5.3
2023-02-06T17:05:47.246Z,5.1
2023-02-06T17:15:47.472Z,4.8
2023-02-06T17:25:47.859Z,4.5
2023-02-06T17:35:48.058Z,4.4
2023-02-06T17:45:49.061Z,4.2
2023-02-06T17:55:49.452Z,4
2023-02-06T18:05:49.715Z,3.8
2023-02-06T18:25:51.340Z,3.3
2023-02-06T18:35:51.761Z,3
2023-02-06T18:45:52.643Z,2.9
2023-02-06T18:55:52.731Z,2.2
2023-02-06T19:05:53.774Z,2.2
2023-02-06T19:15:54.871Z,1.9
2023-02-06T19:25:55.699Z,1.6
2023-02-06T19:35:55.882Z,1.6
2023-02-06T19:45:56.692Z,1.8
2023-02-06T19:55:56.788Z,1.8
2023-02-06T20:05:57.183Z,1.5
2023-02-06T20:15:58.180Z,1
2023-02-06T20:25:58.529Z,0.9
2023-02-06T20:35:59.616Z,0.6
2023-02-06T20:45:59.914Z,0.5
2023-02-06T20:56:00.845Z,0.2
2023-02-06T21:16:01.729Z,-0.1
2023-02-06T21:26:02.318Z,0.1
2023-02-06T21:36:02.757Z,0.2
2023-02-06T21:46:03.413Z,0.7
2023-02-06T21:56:03.468Z,1.1
2023-02-06T22:06:04.448Z,1.2
2023-02-06T22:26:05.641Z,1.3
2023-02-06T22:36:06.239Z,1.2
2023-02-06T22:56:07.267Z,1
2023-02-06T23:16:08.826Z,0.7
